地図

経路データ

SID SEASON NUMBER BASIN SUBBASIN NAME ISO_TIME NATURE LAT LON WMO_WIND WMO_PRES WMO_AGENCY TRACK_TYPE DIST2LAND LANDFALL IFLAG USA_AGENCY USA_ATCF_ID USA_LAT USA_LON USA_RECORD USA_STATUS USA_WIND USA_PRES USA_SSHS USA_R34_NE USA_R34_SE USA_R34_SW USA_R34_NW USA_R50_NE USA_R50_SE USA_R50_SW USA_R50_NW USA_R64_NE USA_R64_SE USA_R64_SW USA_R64_NW USA_POCI USA_ROCI USA_RMW USA_EYE TOKYO_LAT TOKYO_LON TOKYO_GRADE TOKYO_WIND TOKYO_PRES TOKYO_R50_DIR TOKYO_R50_LONG TOKYO_R50_SHORT TOKYO_R30_DIR TOKYO_R30_LONG TOKYO_R30_SHORT TOKYO_LAND CMA_LAT CMA_LON CMA_CAT CMA_WIND CMA_PRES HKO_LAT HKO_LON HKO_CAT HKO_WIND HKO_PRES NEWDELHI_LAT NEWDELHI_LON NEWDELHI_GRADE NEWDELHI_WIND NEWDELHI_PRES NEWDELHI_CI NEWDELHI_DP NEWDELHI_POCI REUNION_LAT REUNION_LON REUNION_TYPE REUNION_WIND REUNION_PRES REUNION_TNUM REUNION_CI REUNION_RMW REUNION_R34_NE REUNION_R34_SE REUNION_R34_SW REUNION_R34_NW REUNION_R50_NE REUNION_R50_SE REUNION_R50_SW REUNION_R50_NW REUNION_R64_NE REUNION_R64_SE REUNION_R64_SW REUNION_R64_NW BOM_LAT BOM_LON BOM_TYPE BOM_WIND BOM_PRES BOM_TNUM BOM_CI BOM_RMW BOM_R34_NE BOM_R34_SE BOM_R34_SW BOM_R34_NW BOM_R50_NE BOM_R50_SE BOM_R50_SW BOM_R50_NW BOM_R64_NE BOM_R64_SE BOM_R64_SW BOM_R64_NW BOM_ROCI BOM_POCI BOM_EYE BOM_POS_METHOD BOM_PRES_METHOD NADI_LAT NADI_LON NADI_CAT NADI_WIND NADI_PRES WELLINGTON_LAT WELLINGTON_LON WELLINGTON_WIND WELLINGTON_PRES DS824_LAT DS824_LON DS824_STAGE DS824_WIND DS824_PRES TD9636_LAT TD9636_LON TD9636_STAGE TD9636_WIND TD9636_PRES TD9635_LAT TD9635_LON TD9635_WIND TD9635_PRES TD9635_ROCI NEUMANN_LAT NEUMANN_LON NEUMANN_CLASS NEUMANN_WIND NEUMANN_PRES MLC_LAT MLC_LON MLC_CLASS MLC_WIND MLC_PRES USA_GUST BOM_GUST BOM_GUST_PER REUNION_GUST REUNION_GUST_PER USA_SEAHGT USA_SEARAD_NE USA_SEARAD_SE USA_SEARAD_SW USA_SEARAD_NW STORM_SPEED STORM_DIR
1967206N15241 1967 56 EP MM GEORGETTE 1967-07-25 00:00:00 TS 14.9000 -119.200 25 hurdat_epa main 1317 1317 O________OO___ hurdat_epa EP071967 14.9000 -119.200 TD 25 -1 14.9000 -119.200 TC 25 14.9000 -119.200 1 9 251
1967206N15241 1967 56 EP MM GEORGETTE 1967-07-25 03:00:00 TS 14.7475 -119.647 main 1363 1363 P________PP___ EP071967 14.7376 -119.640 TD 25 -1 14.7376 -119.640 TC 25 14.7868 -119.672 1 9 252
1967206N15241 1967 56 EP MM GEORGETTE 1967-07-25 06:00:00 TS 14.6137 -120.109 25 hurdat_epa main 1405 1405 O________OP___ hurdat_epa EP071967 14.6000 -120.100 TD 25 -1 14.6000 -120.100 TC 25 14.6684 -120.145 1 10 255
1967206N15241 1967 56 EP MM GEORGETTE 1967-07-25 09:00:00 TS 14.5081 -120.598 main 1446 1446 P________PP___ EP071967 14.4999 -120.592 TD 25 -1 14.4999 -120.592 TC 25 14.5409 -120.621 1 10 257
1967206N15241 1967 56 EP MM GEORGETTE 1967-07-25 12:00:00 TS 14.4000 -121.100 25 hurdat_epa main 1487 1487 O________OO___ hurdat_epa EP071967 14.4000 -121.100 TD 25 -1 14.4000 -121.100 TC 25 14.4000 -121.100 1 10 255
1967206N15241 1967 56 EP MM GEORGETTE 1967-07-25 15:00:00 TS 14.2491 -121.591 main 1538 1538 P________PP___ EP071967 14.2498 -121.593 TD 25 -1 14.2498 -121.593 TC 25 14.2460 -121.587 1 10 253
1967206N15241 1967 56 EP MM GEORGETTE 1967-07-25 18:00:00 TS 14.0993 -122.098 25 hurdat_epa main 1581 1581 O________OP___ hurdat_epa EP071967 14.1000 -122.100 TD 25 -1 14.1000 -122.100 TC 25 14.0966 -122.091 1 10 255
1967206N15241 1967 56 EP MM GEORGETTE 1967-07-25 21:00:00 TS 13.9766 -122.627 main 1625 1625 P________PP___ EP071967 13.9773 -122.628 TD 25 -1 13.9773 -122.628 TC 25 13.9740 -122.624 1 11 259
1967206N15241 1967 56 EP MM GEORGETTE 1967-07-26 00:00:00 TS 13.9000 -123.200 25 hurdat_epa main 1676 1676 O________OO___ hurdat_epa EP071967 13.9000 -123.200 TD 25 -1 13.9000 -123.200 TC 25 13.9000 -123.200 1 12 265
1967206N15241 1967 56 EP MM GEORGETTE 1967-07-26 03:00:00 TS 13.8734 -123.828 main 1720 1720 P________PP___ EP071967 13.8699 -123.828 TD 25 -1 13.8699 -123.828 TC 25 13.8874 -123.828 1 13 270
1967206N15241 1967 56 EP MM GEORGETTE 1967-07-26 06:00:00 TS 13.9050 -124.499 25 hurdat_epa main 1773 1773 O________OP___ hurdat_epa EP071967 13.9000 -124.500 TD 25 -1 13.9000 -124.500 TC 25 13.9248 -124.497 1 13 275
1967206N15241 1967 56 EP MM GEORGETTE 1967-07-26 09:00:00 TS 13.9878 -125.193 main 1819 1819 P________PP___ EP071967 13.9849 -125.192 TD 25 -1 13.9849 -125.192 TC 25 13.9998 -125.193 1 14 278
1967206N15241 1967 56 EP MM GEORGETTE 1967-07-26 12:00:00 TS 14.1000 -125.900 25 hurdat_epa main 1867 1867 O________OO___ hurdat_epa EP071967 14.1000 -125.900 TD 25 -1 14.1000 -125.900 TC 25 14.1000 -125.900 2 14 279
1967206N15241 1967 56 EP MM GEORGETTE 1967-07-26 15:00:00 TS 14.1938 -126.608 main 1916 1916 P________PP___ EP071967 14.1923 -126.600 TD 35 0 14.1923 -126.600 TC 35 14.1997 -126.637 2 14 278
1967206N15241 1967 56 EP MM GEORGETTE 1967-07-26 18:00:00 TS 14.3041 -127.315 45 hurdat_epa main 1965 1965 O________OP___ hurdat_epa EP071967 14.3000 -127.300 TS 45 0 14.3000 -127.300 TC 45 14.3206 -127.375 2 14 280
1967206N15241 1967 56 EP MM GEORGETTE 1967-07-26 21:00:00 TS 14.4453 -128.045 main 2004 2002 P________PP___ EP071967 14.4426 -128.037 TS 45 0 14.4426 -128.037 TC 45 14.4561 -128.075 2 14 282
1967206N15241 1967 56 EP MM GEORGETTE 1967-07-27 00:00:00 TS 14.6000 -128.700 45 hurdat_epa main 2036 2036 O________OO___ hurdat_epa EP071967 14.6000 -128.700 TS 45 0 14.6000 -128.700 TC 45 14.6000 -128.700 2 12 285
1967206N15241 1967 56 EP MM GEORGETTE 1967-07-27 03:00:00 TS 14.7456 -129.195 main 2064 2056 P________PP___ EP071967 14.7497 -129.195 TS 45 0 14.7497 -129.195 TC 45 14.7294 -129.196 2 9 289
1967206N15241 1967 56 EP MM GEORGETTE 1967-07-27 06:00:00 TS 14.8937 -129.604 45 hurdat_epa main 2078 2078 O________OP___ hurdat_epa EP071967 14.9000 -129.600 TS 45 0 14.9000 -129.600 TC 45 14.8684 -129.618 2 8 291
1967206N15241 1967 56 EP MM GEORGETTE 1967-07-27 09:00:00 TS 15.0385 -129.995 main 2100 2092 P________PP___ EP071967 15.0423 -129.993 TS 45 0 15.0423 -129.993 TC 45 15.0233 -130.006 2 8 292
1967206N15241 1967 56 EP MM GEORGETTE 1967-07-27 12:00:00 TS 15.2000 -130.400 45 hurdat_epa main 2115 2115 O________OO___ hurdat_epa EP071967 15.2000 -130.400 TS 45 0 15.2000 -130.400 TC 45 15.2000 -130.400 2 9 292
1967206N15241 1967 56 EP MM GEORGETTE 1967-07-27 15:00:00 TS 15.3888 -130.893 main 2139 2139 P________PP___ EP071967 15.3850 -130.893 TS 45 0 15.3850 -130.893 TC 45 15.4037 -130.897 2 10 293
1967206N15241 1967 56 EP MM GEORGETTE 1967-07-27 18:00:00 TS 15.6056 -131.400 45 hurdat_epa main 2163 2163 O________OP___ hurdat_epa EP071967 15.6000 -131.400 TS 45 0 15.6000 -131.400 TC 45 15.6280 -131.402 2 11 296
1967206N15241 1967 56 EP MM GEORGETTE 1967-07-27 21:00:00 TS 15.8527 -131.886 main 2182 2182 P________PP___ EP071967 15.8500 -131.887 TS 45 0 15.8500 -131.887 TC 45 15.8632 -131.881 2 10 300
1967206N15241 1967 56 EP MM GEORGETTE 1967-07-28 00:00:00 TS 16.1000 -132.300 45 hurdat_epa main 2201 2201 O________OO___ hurdat_epa EP071967 16.1000 -132.300 TS 45 0 16.1000 -132.300 TC 45 16.1000 -132.300 2 8 304
1967206N15241 1967 56 EP MM GEORGETTE 1967-07-28 03:00:00 TS 16.3064 -132.587 main 2212 2205 P________PP___ EP071967 16.2998 -132.580 TS 45 0 16.2998 -132.580 TC 45 16.3325 -132.615 2 6 310
1967206N15241 1967 56 EP MM GEORGETTE 1967-07-28 06:00:00 TS 16.5128 -132.814 45 hurdat_epa main 2215 2210 O________OP___ hurdat_epa EP071967 16.5000 -132.800 TS 45 0 16.5000 -132.800 TC 45 16.5642 -132.868 2 6 315
1967206N15241 1967 56 EP MM GEORGETTE 1967-07-28 09:00:00 TS 16.7638 -133.057 main 2220 2216 P________PP___ EP071967 16.7575 -133.050 TS 45 0 16.7575 -133.050 TC 45 16.7889 -133.087 2 7 316
1967206N15241 1967 56 EP MM GEORGETTE 1967-07-28 12:00:00 TS 17.0000 -133.300 45 hurdat_epa main 2224 2224 O________OO___ hurdat_epa EP071967 17.0000 -133.300 TS 45 0 17.0000 -133.300 TC 45 17.0000 -133.300 2 6 310
1967206N15241 1967 56 EP MM GEORGETTE 1967-07-28 15:00:00 TS 17.1638 -133.552 main 2237 2228 P________PP___ EP071967 17.1575 -133.550 TS 45 0 17.1575 -133.550 TC 45 17.1893 -133.558 2 6 303
1967206N15241 1967 56 EP MM GEORGETTE 1967-07-28 18:00:00 TS 17.3130 -133.803 45 hurdat_epa main 2228 2203 O________OP___ hurdat_epa EP071967 17.3000 -133.800 TS 45 0 17.3000 -133.800 TC 45 17.3650 -133.815 2 6 305
1967206N15241 1967 56 EP MM GEORGETTE 1967-07-28 21:00:00 TS 17.5066 -134.059 main 2193 2168 P________PP___ EP071967 17.5000 -134.057 TS 45 0 17.5000 -134.057 TC 45 17.5331 -134.065 2 6 309
1967206N15241 1967 56 EP MM GEORGETTE 1967-07-29 00:00:00 TS 17.7000 -134.300 45 hurdat_epa main 2168 2146 O________OO___ hurdat_epa EP071967 17.7000 -134.300 TS 45 0 17.7000 -134.300 TC 45 17.7000 -134.300 2 6 309
1967206N15241 1967 56 EP MM GEORGETTE 1967-07-29 03:00:00 TS 17.8533 -134.509 main 2144 2121 P________PP___ EP071967 17.8500 -134.508 TS 45 0 17.8500 -134.508 TC 45 17.8667 -134.515 2 5 309
1967206N15241 1967 56 EP MM GEORGETTE 1967-07-29 06:00:00 TS 18.0070 -134.703 45 hurdat_epa main 2121 2098 O________OP___ hurdat_epa EP071967 18.0000 -134.700 TS 45 0 18.0000 -134.700 TC 45 18.0348 -134.715 2 5 313
1967206N15241 1967 56 EP MM GEORGETTE 1967-07-29 09:00:00 TS 18.1961 -134.902 main 2098 2074 P________PP___ EP071967 18.1925 -134.900 TS 45 0 18.1925 -134.900 TC 45 18.2105 -134.908 2 5 316
1967206N15241 1967 56 EP MM GEORGETTE 1967-07-29 12:00:00 TS 18.4000 -135.100 45 hurdat_epa main 2074 2051 O________OO___ hurdat_epa EP071967 18.4000 -135.100 TS 45 0 18.4000 -135.100 TC 45 18.4000 -135.100 2 6 317
1967206N15241 1967 56 EP MM GEORGETTE 1967-07-29 15:00:00 TS 18.5955 -135.299 main 2051 2027 P________PP___ EP071967 18.5925 -135.300 TS 45 0 18.5925 -135.300 TC 45 18.6076 -135.295 2 6 317
1967206N15241 1967 56 EP MM GEORGETTE 1967-07-29 18:00:00 TS 18.8060 -135.499 45 hurdat_epa main 2027 2004 O________OP___ hurdat_epa EP071967 18.8000 -135.500 TS 45 0 18.8000 -135.500 TC 45 18.8302 -135.494 2 6 320
1967206N15241 1967 56 EP MM GEORGETTE 1967-07-29 21:00:00 TS 19.0446 -135.699 main 2004 1981 P________PP___ EP071967 19.0400 -135.700 TS 45 0 19.0400 -135.700 TC 45 19.0627 -135.696 2 6 322
1967206N15241 1967 56 EP MM GEORGETTE 1967-07-30 00:00:00 TS 19.3000 -135.900 45 hurdat_epa main 1981 O________OO___ hurdat_epa EP071967 19.3000 -135.900 TS 45 0 19.3000 -135.900 TC 45 19.3000 -135.900 2 6 323

IBTrACS Databaseについて

本データベースは、米国NOAAが公開する1842年以降の世界の熱帯低気圧のベストトラックデータアーカイブInternational Best Track Archive for Climate Stewardship (IBTrACS)を、ウェブで閲覧しやすい形式に変換したものです。

最終更新日:2021-11-26